Mariner Of The Seas — C6FV9 — position and weather

sailwx.info

Track history (hours):
 
Tides and Currents Weather Stations Pressure Air Temp Water Temp Dewpoint Dewpoint Depression Visibility Wind Speed Wind Dir Waves Ship Positions

Mariner Of The Seas

Operator: Royal Caribbean Cruises Ltd

Last reported at 2018-Aug-14 00:42 UTC. Time now 2018-Aug-16 20:17 UTC.
Position N 26°12' W 079°20'.

Type: Passenger vessel. MMSI: 311493000.

Date/timePositionNaut miles runAvg speedWind from/ knotsBaromVisibWave heightAir tempDewpointWater temp
2018-Aug-14 00:42N 26°12' W 079°20'314.9
2018-Aug-14 00:30N 26°10' W 079°23'815.1
2018-Aug-13 23:59N 26°06' W 079°30'715.5
2018-Aug-13 23:30N 26°02' W 079°37'815.3
2018-Aug-13 23:00N 25°58' W 079°45'815.4
2018-Aug-13 22:30N 25°55' W 079°52'815.0
2018-Aug-13 22:00N 25°51' W 079°60'714.0
2018-Aug-13 21:31N 25°46' W 080°05'5 9.7
2018-Aug-13 21:01N 25°47' W 080°10'0 0.8
2018-Aug-13 20:25N 25°47' W 080°11'0 0.0
2018-Aug-13 19:58N 25°47' W 080°11'0 0.0
2018-Aug-13 19:28N 25°47' W 080°11'0 0.0
2018-Aug-13 18:58N 25°47' W 080°11'0 0.0
2018-Aug-13 18:28N 25°47' W 080°11'0 0.0
2018-Aug-13 17:58N 25°47' W 080°11'0 0.0
2018-Aug-13 17:19N 25°47' W 080°11'0 0.0
2018-Aug-13 16:58N 25°47' W 080°11'0 0.0
2018-Aug-13 16:25N 25°47' W 080°11'0 0.0
2018-Aug-13 15:58N 25°47' W 080°11'0 0.0
2018-Aug-13 15:28N 25°47' W 080°11'0 0.0
2018-Aug-13 14:58N 25°47' W 080°11'0 0.0
2018-Aug-13 14:22N 25°47' W 080°11'0 0.0
2018-Aug-13 13:58N 25°47' W 080°11'0 0.0
2018-Aug-13 13:25N 25°47' W 080°11'0 0.0
2018-Aug-13 12:55N 25°47' W 080°11'0 0.0
2018-Aug-13 12:25N 25°47' W 080°11'0 0.0
2018-Aug-13 11:58N 25°47' W 080°11'0 0.0
2018-Aug-13 11:28N 25°47' W 080°11'0 0.0
2018-Aug-13 10:58N 25°47' W 080°11'0 0.0
2018-Aug-13 10:28N 25°47' W 080°11'1 1.5
2018-Aug-13 10:01N 25°47' W 080°10'4 8.9
2018-Aug-13 09:31N 25°46' W 080°05'611.4
2018-Aug-13 09:01N 25°48' W 079°59'612.5
2018-Aug-13 08:30N 25°51' W 079°53'3 5.2
2018-Aug-13 08:00N 25°52' W 079°51'610.1
2018-Aug-13 07:26N 25°55' W 079°45'5 9.5
2018-Aug-13 06:58N 25°57' W 079°41'  
2018-Aug-11 02:27N 26°17' W 079°15'4 9.8
2018-Aug-11 02:00N 26°13' W 079°18'5 9.8
2018-Aug-11 01:30N 26°10' W 079°22'5 9.6
2018-Aug-11 01:01N 26°08' W 079°27'510.0
2018-Aug-11 00:30N 26°05' W 079°32'712.6
2018-Aug-10 23:58N 26°02' W 079°38'613.6
2018-Aug-10 23:30N 25°59' W 079°44'713.4
2018-Aug-10 23:00N 25°56' W 079°51'510.2
2018-Aug-10 22:30N 25°53' W 079°55'5 9.7
2018-Aug-10 22:00N 25°49' W 079°59'510.5
2018-Aug-10 21:30N 25°46' W 080°04'5 9.1
2018-Aug-10 21:00N 25°46' W 080°09'2 3.4
2018-Aug-10 20:28N 25°47' W 080°11'0 0.0
2018-Aug-10 19:58N 25°47' W 080°11'0 0.0
2018-Aug-10 19:28N 25°47' W 080°11'0 0.0
2018-Aug-10 18:58N 25°47' W 080°11'0 0.0
2018-Aug-10 18:28N 25°47' W 080°11'0 0.0
2018-Aug-10 18:00N 25°47' W 080°11'0 0.0
2018-Aug-10 17:30N 25°47' W 080°11'0 0.0
2018-Aug-10 17:00N 25°47' W 080°11'0 0.0
2018-Aug-10 16:30N 25°47' W 080°11'0 0.0
2018-Aug-10 16:00N 25°47' W 080°11'0 0.0
2018-Aug-10 15:30N 25°47' W 080°11'0 0.0
2018-Aug-10 15:00N 25°47' W 080°11'0 0.0
2018-Aug-10 14:30N 25°47' W 080°11'0 0.0
2018-Aug-10 14:00N 25°47' W 080°11'0 0.0
2018-Aug-10 13:30N 25°47' W 080°11'0 0.0
2018-Aug-10 13:00N 25°47' W 080°11'0 0.0
2018-Aug-10 12:30N 25°47' W 080°11'0 0.0
2018-Aug-10 12:00N 25°47' W 080°11'0 0.0
2018-Aug-10 11:30N 25°47' W 080°11'0 0.0
2018-Aug-10 10:57N 25°47' W 080°11'0 0.0
2018-Aug-10 10:27N 25°47' W 080°11'0 0.0
2018-Aug-10 10:00N 25°47' W 080°11'0 0.8
2018-Aug-10 09:30N 25°47' W 080°11'3 5.7
2018-Aug-10 09:00N 25°46' W 080°08'611.9
2018-Aug-10 08:30N 25°47' W 080°02'1 2.8
2018-Aug-10 08:00N 25°48' W 080°00'2 4.9
2018-Aug-10 07:30N 25°49' W 079°58'3 5.4
2018-Aug-10 07:00N 25°51' W 079°55'3 6.0
2018-Aug-10 06:30N 25°52' W 079°53'3 5.9
2018-Aug-10 06:00N 25°54' W 079°50'3 5.4
2018-Aug-10 05:29N 25°56' W 079°47'3 5.5
2018-Aug-10 04:59N 25°57' W 079°45'3 5.8
2018-Aug-10 04:30N 25°59' W 079°42'3 5.3
2018-Aug-10 03:51N 26°01' W 079°39'3 5.0
2018-Aug-10 03:20N 26°02' W 079°37'2 5.4
2018-Aug-10 03:00N 26°03' W 079°35'3 5.5
2018-Aug-10 02:30N 26°05' W 079°33'4 5.4
2018-Aug-10 01:41N 26°07' W 079°28'  
2018-Aug-07 00:55N 26°12' W 079°23'614.5
2018-Aug-07 00:30N 26°09' W 079°28'714.7
2018-Aug-07 00:00N 26°04' W 079°35'714.5
2018-Aug-06 23:30N 25°60' W 079°41'714.5
2018-Aug-06 23:00N 25°55' W 079°47'815.3
2018-Aug-06 22:30N 25°51' W 079°54'815.6
2018-Aug-06 22:00N 25°47' W 080°02'5 9.8
2018-Aug-06 21:30N 25°45' W 080°07'4 7.4
2018-Aug-06 21:00N 25°47' W 080°11'0 0.3
2018-Aug-06 20:26N 25°47' W 080°11'0 0.0
2018-Aug-06 19:56N 25°47' W 080°11'0 0.0
2018-Aug-06 19:26N 25°47' W 080°11'0 0.0
2018-Aug-06 18:56N 25°47' W 080°11'0 0.0
2018-Aug-06 18:26N 25°47' W 080°11'0 0.0
2018-Aug-06 17:56N 25°47' W 080°11'0 0.0
2018-Aug-06 17:26N 25°47' W 080°11'0 0.0
2018-Aug-06 16:56N 25°47' W 080°11'0 0.0
2018-Aug-06 16:26N 25°47' W 080°11'0 0.0
2018-Aug-06 15:56N 25°47' W 080°11'0 0.0
2018-Aug-06 15:26N 25°47' W 080°11'0 0.0
2018-Aug-06 14:56N 25°47' W 080°11'0 0.0
2018-Aug-06 14:26N 25°47' W 080°11'0 0.0
2018-Aug-06 13:56N 25°47' W 080°11'0 0.0
2018-Aug-06 13:26N 25°47' W 080°11'0 0.0
2018-Aug-06 12:56N 25°47' W 080°11'0 0.0
2018-Aug-06 12:26N 25°47' W 080°11'0 0.0
2018-Aug-06 11:56N 25°47' W 080°11'0 0.0
2018-Aug-06 11:26N 25°47' W 080°11'0 0.0
2018-Aug-06 10:56N 25°47' W 080°11'0 0.0
2018-Aug-06 10:26N 25°47' W 080°11'1 2.8
2018-Aug-06 10:00N 25°46' W 080°09'5 9.2
2018-Aug-06 09:30N 25°46' W 080°04'5 9.4
2018-Aug-06 09:00N 25°48' W 079°60'510.0
2018-Aug-06 08:31N 25°51' W 079°55'610.4
2018-Aug-06 07:57N 25°53' W 079°49'510.4
2018-Aug-06 07:30N 25°55' W 079°44'510.9
2018-Aug-06 07:01N 25°58' W 079°39'  
2018-Aug-04 02:12N 26°13' W 079°17'2 9.5
2018-Aug-04 02:00N 26°12' W 079°19'510.0
2018-Aug-04 01:30N 26°08' W 079°23'510.6
2018-Aug-04 01:00N 26°06' W 079°28'  
Track history (hours):
 
Tides and Currents Weather Stations Pressure Air Temp Water Temp Dewpoint Dewpoint Depression Visibility Wind Speed Wind Dir Waves Ship Positions

Mariner Of The Seas

Operator: Royal Caribbean Cruises Ltd

Last reported at 2018-Aug-14 00:42 UTC. Time now 2018-Aug-16 20:17 UTC.
Position N 26°12' W 079°20'.

Type: Passenger vessel. MMSI: 311493000.

Date/timePositionNaut miles runAvg speedWind from/ knotsBaromVisibWave heightAir tempDewpointWater temp
2018-Aug-14 00:42N 26°12' W 079°20'314.9
2018-Aug-14 00:30N 26°10' W 079°23'815.1
2018-Aug-13 23:59N 26°06' W 079°30'715.5
2018-Aug-13 23:30N 26°02' W 079°37'815.3
2018-Aug-13 23:00N 25°58' W 079°45'815.4
2018-Aug-13 22:30N 25°55' W 079°52'815.0
2018-Aug-13 22:00N 25°51' W 079°60'714.0
2018-Aug-13 21:31N 25°46' W 080°05'5 9.7
2018-Aug-13 21:01N 25°47' W 080°10'0 0.8
2018-Aug-13 20:25N 25°47' W 080°11'0 0.0
2018-Aug-13 19:58N 25°47' W 080°11'0 0.0
2018-Aug-13 19:28N 25°47' W 080°11'0 0.0
2018-Aug-13 18:58N 25°47' W 080°11'0 0.0
2018-Aug-13 18:28N 25°47' W 080°11'0 0.0
2018-Aug-13 17:58N 25°47' W 080°11'0 0.0
2018-Aug-13 17:19N 25°47' W 080°11'0 0.0
2018-Aug-13 16:58N 25°47' W 080°11'0 0.0
2018-Aug-13 16:25N 25°47' W 080°11'0 0.0
2018-Aug-13 15:58N 25°47' W 080°11'0 0.0
2018-Aug-13 15:28N 25°47' W 080°11'0 0.0
2018-Aug-13 14:58N 25°47' W 080°11'0 0.0
2018-Aug-13 14:22N 25°47' W 080°11'0 0.0
2018-Aug-13 13:58N 25°47' W 080°11'0 0.0
2018-Aug-13 13:25N 25°47' W 080°11'0 0.0
2018-Aug-13 12:55N 25°47' W 080°11'0 0.0
2018-Aug-13 12:25N 25°47' W 080°11'0 0.0
2018-Aug-13 11:58N 25°47' W 080°11'0 0.0
2018-Aug-13 11:28N 25°47' W 080°11'0 0.0
2018-Aug-13 10:58N 25°47' W 080°11'0 0.0
2018-Aug-13 10:28N 25°47' W 080°11'1 1.5
2018-Aug-13 10:01N 25°47' W 080°10'4 8.9
2018-Aug-13 09:31N 25°46' W 080°05'611.4
2018-Aug-13 09:01N 25°48' W 079°59'612.5
2018-Aug-13 08:30N 25°51' W 079°53'3 5.2
2018-Aug-13 08:00N 25°52' W 079°51'610.1
2018-Aug-13 07:26N 25°55' W 079°45'5 9.5
2018-Aug-13 06:58N 25°57' W 079°41'  
2018-Aug-11 02:27N 26°17' W 079°15'4 9.8
2018-Aug-11 02:00N 26°13' W 079°18'5 9.8
2018-Aug-11 01:30N 26°10' W 079°22'5 9.6
2018-Aug-11 01:01N 26°08' W 079°27'510.0
2018-Aug-11 00:30N 26°05' W 079°32'712.6
2018-Aug-10 23:58N 26°02' W 079°38'613.6
2018-Aug-10 23:30N 25°59' W 079°44'713.4
2018-Aug-10 23:00N 25°56' W 079°51'510.2
2018-Aug-10 22:30N 25°53' W 079°55'5 9.7
2018-Aug-10 22:00N 25°49' W 079°59'510.5
2018-Aug-10 21:30N 25°46' W 080°04'5 9.1
2018-Aug-10 21:00N 25°46' W 080°09'2 3.4
2018-Aug-10 20:28N 25°47' W 080°11'0 0.0
2018-Aug-10 19:58N 25°47' W 080°11'0 0.0
2018-Aug-10 19:28N 25°47' W 080°11'0 0.0
2018-Aug-10 18:58N 25°47' W 080°11'0 0.0
2018-Aug-10 18:28N 25°47' W 080°11'0 0.0
2018-Aug-10 18:00N 25°47' W 080°11'0 0.0
2018-Aug-10 17:30N 25°47' W 080°11'0 0.0
2018-Aug-10 17:00N 25°47' W 080°11'0 0.0
2018-Aug-10 16:30N 25°47' W 080°11'0 0.0
2018-Aug-10 16:00N 25°47' W 080°11'0 0.0
2018-Aug-10 15:30N 25°47' W 080°11'0 0.0
2018-Aug-10 15:00N 25°47' W 080°11'0 0.0
2018-Aug-10 14:30N 25°47' W 080°11'0 0.0
2018-Aug-10 14:00N 25°47' W 080°11'0 0.0
2018-Aug-10 13:30N 25°47' W 080°11'0 0.0
2018-Aug-10 13:00N 25°47' W 080°11'0 0.0
2018-Aug-10 12:30N 25°47' W 080°11'0 0.0
2018-Aug-10 12:00N 25°47' W 080°11'0 0.0
2018-Aug-10 11:30N 25°47' W 080°11'0 0.0
2018-Aug-10 10:57N 25°47' W 080°11'0 0.0
2018-Aug-10 10:27N 25°47' W 080°11'0 0.0
2018-Aug-10 10:00N 25°47' W 080°11'0 0.8
2018-Aug-10 09:30N 25°47' W 080°11'3 5.7
2018-Aug-10 09:00N 25°46' W 080°08'611.9
2018-Aug-10 08:30N 25°47' W 080°02'1 2.8
2018-Aug-10 08:00N 25°48' W 080°00'2 4.9
2018-Aug-10 07:30N 25°49' W 079°58'3 5.4
2018-Aug-10 07:00N 25°51' W 079°55'3 6.0
2018-Aug-10 06:30N 25°52' W 079°53'3 5.9
2018-Aug-10 06:00N 25°54' W 079°50'3 5.4
2018-Aug-10 05:29N 25°56' W 079°47'3 5.5
2018-Aug-10 04:59N 25°57' W 079°45'3 5.8
2018-Aug-10 04:30N 25°59' W 079°42'3 5.3
2018-Aug-10 03:51N 26°01' W 079°39'3 5.0
2018-Aug-10 03:20N 26°02' W 079°37'2 5.4
2018-Aug-10 03:00N 26°03' W 079°35'3 5.5
2018-Aug-10 02:30N 26°05' W 079°33'4 5.4
2018-Aug-10 01:41N 26°07' W 079°28'  
2018-Aug-07 00:55N 26°12' W 079°23'614.5
2018-Aug-07 00:30N 26°09' W 079°28'714.7
2018-Aug-07 00:00N 26°04' W 079°35'714.5
2018-Aug-06 23:30N 25°60' W 079°41'714.5
2018-Aug-06 23:00N 25°55' W 079°47'815.3
2018-Aug-06 22:30N 25°51' W 079°54'815.6
2018-Aug-06 22:00N 25°47' W 080°02'5 9.8
2018-Aug-06 21:30N 25°45' W 080°07'4 7.4
2018-Aug-06 21:00N 25°47' W 080°11'0 0.3
2018-Aug-06 20:26N 25°47' W 080°11'0 0.0
2018-Aug-06 19:56N 25°47' W 080°11'0 0.0
2018-Aug-06 19:26N 25°47' W 080°11'0 0.0
2018-Aug-06 18:56N 25°47' W 080°11'0 0.0
2018-Aug-06 18:26N 25°47' W 080°11'0 0.0
2018-Aug-06 17:56N 25°47' W 080°11'0 0.0
2018-Aug-06 17:26N 25°47' W 080°11'0 0.0
2018-Aug-06 16:56N 25°47' W 080°11'0 0.0
2018-Aug-06 16:26N 25°47' W 080°11'0 0.0
2018-Aug-06 15:56N 25°47' W 080°11'0 0.0
2018-Aug-06 15:26N 25°47' W 080°11'0 0.0
2018-Aug-06 14:56N 25°47' W 080°11'0 0.0
2018-Aug-06 14:26N 25°47' W 080°11'0 0.0
2018-Aug-06 13:56N 25°47' W 080°11'0 0.0
2018-Aug-06 13:26N 25°47' W 080°11'0 0.0
2018-Aug-06 12:56N 25°47' W 080°11'0 0.0
2018-Aug-06 12:26N 25°47' W 080°11'0 0.0
2018-Aug-06 11:56N 25°47' W 080°11'0 0.0
2018-Aug-06 11:26N 25°47' W 080°11'0 0.0
2018-Aug-06 10:56N 25°47' W 080°11'0 0.0
2018-Aug-06 10:26N 25°47' W 080°11'1 2.8
2018-Aug-06 10:00N 25°46' W 080°09'5 9.2
2018-Aug-06 09:30N 25°46' W 080°04'5 9.4
2018-Aug-06 09:00N 25°48' W 079°60'510.0
2018-Aug-06 08:31N 25°51' W 079°55'610.4
2018-Aug-06 07:57N 25°53' W 079°49'510.4
2018-Aug-06 07:30N 25°55' W 079°44'510.9
2018-Aug-06 07:01N 25°58' W 079°39'  
2018-Aug-04 02:12N 26°13' W 079°17'2 9.5
2018-Aug-04 02:00N 26°12' W 079°19'510.0
2018-Aug-04 01:30N 26°08' W 079°23'510.6
2018-Aug-04 01:00N 26°06' W 079°28'  

Dump ship's entire track history